sensor_id;sensor_type;location;lat;lon;timestamp;pressure;altitude;pressure_sealevel;temperature;humidity
6524;BME280;3295;38.928;-77.052;2023-02-13T00:01:24;100226.53;;;6.45;100.00
6524;BME280;3295;38.928;-77.052;2023-02-13T00:03:52;100219.81;;;6.30;100.00
6524;BME280;3295;38.928;-77.052;2023-02-13T00:06:21;100216.00;;;6.22;100.00
6524;BME280;3295;38.928;-77.052;2023-02-13T00:08:49;100224.00;;;6.30;100.00
6524;BME280;3295;38.928;-77.052;2023-02-13T00:11:18;100225.06;;;6.19;100.00
6524;BME280;3295;38.928;-77.052;2023-02-13T00:13:46;100220.88;;;6.19;100.00
6524;BME280;3295;38.928;-77.052;2023-02-13T00:16:14;100210.56;;;6.16;100.00
6524;BME280;3295;38.928;-77.052;2023-02-13T00:18:44;100205.50;;;6.16;100.00
6524;BME280;3295;38.928;-77.052;2023-02-13T00:21:13;100195.75;;;6.22;100.00
6524;BME280;3295;38.928;-77.052;2023-02-13T00:23:43;100184.56;;;6.19;100.00
6524;BME280;3295;38.928;-77.052;2023-02-13T00:26:12;100182.31;;;6.23;100.00
6524;BME280;3295;38.928;-77.052;2023-02-13T00:28:40;100184.06;;;6.24;100.00
6524;BME280;3295;38.928;-77.052;2023-02-13T00:31:10;100175.84;;;6.28;100.00
6524;BME280;3295;38.928;-77.052;2023-02-13T00:33:38;100176.00;;;6.31;100.00
6524;BME280;3295;38.928;-77.052;2023-02-13T00:36:10;100166.31;;;6.24;100.00
6524;BME280;3295;38.928;-77.052;2023-02-13T00:38:39;100161.00;;;6.05;100.00
6524;BME280;3295;38.928;-77.052;2023-02-13T00:41:08;100154.75;;;5.98;100.00
6524;BME280;3295;38.928;-77.052;2023-02-13T00:43:36;100147.41;;;5.88;100.00
6524;BME280;3295;38.928;-77.052;2023-02-13T00:46:04;100136.16;;;5.98;100.00
6524;BME280;3295;38.928;-77.052;2023-02-13T00:48:33;100138.31;;;5.92;100.00
6524;BME280;3295;38.928;-77.052;2023-02-13T00:51:02;100134.66;;;5.87;100.00
6524;BME280;3295;38.928;-77.052;2023-02-13T00:53:32;100136.25;;;5.99;100.00
6524;BME280;3295;38.928;-77.052;2023-02-13T00:56:01;100136.41;;;6.02;100.00
6524;BME280;3295;38.928;-77.052;2023-02-13T00:58:29;100130.91;;;5.95;100.00
6524;BME280;3295;38.928;-77.052;2023-02-13T01:00:57;100127.25;;;5.90;100.00
6524;BME280;3295;38.928;-77.052;2023-02-13T01:03:25;100120.78;;;5.65;100.00
6524;BME280;3295;38.928;-77.052;2023-02-13T01:05:55;100123.47;;;5.68;100.00
6524;BME280;3295;38.928;-77.052;2023-02-13T01:08:23;100119.47;;;5.87;100.00
6524;BME280;3295;38.928;-77.052;2023-02-13T01:10:55;100107.59;;;5.86;100.00
6524;BME280;3295;38.928;-77.052;2023-02-13T01:13:23;100098.28;;;5.70;100.00
6524;BME280;3295;38.928;-77.052;2023-02-13T01:15:51;100092.94;;;5.65;100.00
6524;BME280;3295;38.928;-77.052;2023-02-13T01:18:19;100085.63;;;5.70;100.00
6524;BME280;3295;38.928;-77.052;2023-02-13T01:20:56;100073.31;;;5.61;100.00
6524;BME280;3295;38.928;-77.052;2023-02-13T01:23:28;100071.13;;;5.67;100.00
6524;BME280;3295;38.928;-77.052;2023-02-13T01:25:58;100062.41;;;5.62;100.00
6524;BME280;3295;38.928;-77.052;2023-02-13T01:28:26;100067.63;;;5.80;100.00
6524;BME280;3295;38.928;-77.052;2023-02-13T01:30:58;100058.22;;;5.78;100.00
6524;BME280;3295;38.928;-77.052;2023-02-13T01:33:27;100063.81;;;5.72;100.00
6524;BME280;3295;38.928;-77.052;2023-02-13T01:35:58;100051.75;;;5.83;100.00
6524;BME280;3295;38.928;-77.052;2023-02-13T01:38:26;100061.28;;;5.72;100.00
6524;BME280;3295;38.928;-77.052;2023-02-13T01:41:00;100052.03;;;5.72;100.00
6524;BME280;3295;38.928;-77.052;2023-02-13T01:43:43;100045.16;;;5.70;100.00
6524;BME280;3295;38.928;-77.052;2023-02-13T01:46:16;100050.03;;;5.67;100.00
6524;BME280;3295;38.928;-77.052;2023-02-13T01:48:45;100052.91;;;5.73;100.00
6524;BME280;3295;38.928;-77.052;2023-02-13T01:51:17;100044.78;;;5.79;100.00
6524;BME280;3295;38.928;-77.052;2023-02-13T01:53:50;100042.16;;;5.77;100.00
6524;BME280;3295;38.928;-77.052;2023-02-13T01:56:24;100040.22;;;5.88;100.00
6524;BME280;3295;38.928;-77.052;2023-02-13T01:58:59;100047.41;;;5.95;100.00
6524;BME280;3295;38.928;-77.052;2023-02-13T02:01:29;100047.19;;;6.06;100.00
6524;BME280;3295;38.928;-77.052;2023-02-13T02:04:05;100058.09;;;6.05;100.00
6524;BME280;3295;38.928;-77.052;2023-02-13T02:06:37;100046.16;;;6.03;100.00
6524;BME280;3295;38.928;-77.052;2023-02-13T02:09:10;100042.56;;;6.14;100.00
6524;BME280;3295;38.928;-77.052;2023-02-13T02:11:51;100048.34;;;6.12;100.00
6524;BME280;3295;38.928;-77.052;2023-02-13T02:14:24;100038.56;;;6.34;100.00
6524;BME280;3295;38.928;-77.052;2023-02-13T02:16:53;100029.59;;;6.24;100.00
6524;BME280;3295;38.928;-77.052;2023-02-13T02:19:35;100023.75;;;6.25;100.00
6524;BME280;3295;38.928;-77.052;2023-02-13T02:22:24;100024.41;;;6.37;100.00
6524;BME280;3295;38.928;-77.052;2023-02-13T02:25:21;100019.16;;;6.34;100.00
6524;BME280;3295;38.928;-77.052;2023-02-13T02:28:33;100015.06;;;6.53;100.00
6524;BME280;3295;38.928;-77.052;2023-02-13T02:31:45;100027.91;;;6.56;100.00
6524;BME280;3295;38.928;-77.052;2023-02-13T02:34:28;100021.88;;;6.54;100.00
6524;BME280;3295;38.928;-77.052;2023-02-13T02:37:07;100020.59;;;6.62;100.00
6524;BME280;3295;38.928;-77.052;2023-02-13T02:39:48;100022.19;;;6.60;100.00
6524;BME280;3295;38.928;-77.052;2023-02-13T02:42:26;100022.88;;;6.57;100.00
6524;BME280;3295;38.928;-77.052;2023-02-13T02:44:59;100014.53;;;6.42;100.00
6524;BME280;3295;38.928;-77.052;2023-02-13T02:47:40;100012.03;;;6.43;100.00
6524;BME280;3295;38.928;-77.052;2023-02-13T02:50:33;100004.78;;;6.50;100.00
6524;BME280;3295;38.928;-77.052;2023-02-13T02:53:14;100007.31;;;6.50;100.00
6524;BME280;3295;38.928;-77.052;2023-02-13T02:55:49;99995.59;;;6.52;100.00
6524;BME280;3295;38.928;-77.052;2023-02-13T02:58:20;99996.06;;;6.45;100.00
6524;BME280;3295;38.928;-77.052;2023-02-13T03:01:10;99994.22;;;6.58;100.00
6524;BME280;3295;38.928;-77.052;2023-02-13T03:03:58;99985.94;;;6.61;100.00
6524;BME280;3295;38.928;-77.052;2023-02-13T03:06:45;99978.91;;;6.55;100.00
6524;BME280;3295;38.928;-77.052;2023-02-13T03:09:18;99980.56;;;6.38;100.00
6524;BME280;3295;38.928;-77.052;2023-02-13T03:12:05;99969.31;;;6.50;100.00
6524;BME280;3295;38.928;-77.052;2023-02-13T03:14:52;99961.38;;;6.60;100.00
6524;BME280;3295;38.928;-77.052;2023-02-13T03:17:20;99955.94;;;6.52;100.00
6524;BME280;3295;38.928;-77.052;2023-02-13T03:20:17;99945.56;;;6.48;100.00
6524;BME280;3295;38.928;-77.052;2023-02-13T03:23:11;99943.44;;;6.55;100.00
6524;BME280;3295;38.928;-77.052;2023-02-13T03:25:56;99936.16;;;6.45;100.00
6524;BME280;3295;38.928;-77.052;2023-02-13T03:28:35;99928.16;;;6.37;100.00
6524;BME280;3295;38.928;-77.052;2023-02-13T03:31:25;99923.97;;;6.38;100.00
6524;BME280;3295;38.928;-77.052;2023-02-13T03:33:59;99910.03;;;6.30;100.00
6524;BME280;3295;38.928;-77.052;2023-02-13T03:36:42;99921.97;;;6.49;100.00
6524;BME280;3295;38.928;-77.052;2023-02-13T03:39:37;99912.16;;;6.55;100.00
6524;BME280;3295;38.928;-77.052;2023-02-13T03:42:15;99906.75;;;6.65;100.00
6524;BME280;3295;38.928;-77.052;2023-02-13T03:44:48;99907.56;;;6.64;100.00
6524;BME280;3295;38.928;-77.052;2023-02-13T03:47:39;99900.75;;;6.63;100.00
6524;BME280;3295;38.928;-77.052;2023-02-13T03:50:09;99897.72;;;6.70;100.00
6524;BME280;3295;38.928;-77.052;2023-02-13T03:52:43;99896.00;;;6.69;100.00
6524;BME280;3295;38.928;-77.052;2023-02-13T03:55:17;99896.19;;;6.56;100.00
6524;BME280;3295;38.928;-77.052;2023-02-13T03:58:05;99884.78;;;6.48;100.00
6524;BME280;3295;38.928;-77.052;2023-02-13T04:00:54;99884.06;;;6.50;100.00
6524;BME280;3295;38.928;-77.052;2023-02-13T04:03:26;99874.19;;;6.55;100.00
6524;BME280;3295;38.928;-77.052;2023-02-13T04:06:01;99882.22;;;6.64;100.00
6524;BME280;3295;38.928;-77.052;2023-02-13T04:08:32;99868.75;;;6.65;100.00
6524;BME280;3295;38.928;-77.052;2023-02-13T04:11:07;99871.28;;;6.65;100.00
6524;BME280;3295;38.928;-77.052;2023-02-13T04:13:42;99865.44;;;6.66;100.00
6524;BME280;3295;38.928;-77.052;2023-02-13T04:16:15;99854.59;;;6.68;100.00
6524;BME280;3295;38.928;-77.052;2023-02-13T04:18:44;99859.84;;;6.73;100.00
6524;BME280;3295;38.928;-77.052;2023-02-13T04:21:13;99858.88;;;6.69;100.00
6524;BME280;3295;38.928;-77.052;2023-02-13T04:23:44;99853.28;;;6.76;100.00
6524;BME280;3295;38.928;-77.052;2023-02-13T04:26:15;99851.81;;;6.64;100.00
6524;BME280;3295;38.928;-77.052;2023-02-13T04:28:44;99849.66;;;6.71;100.00
6524;BME280;3295;38.928;-77.052;2023-02-13T04:31:12;99850.19;;;6.82;100.00
6524;BME280;3295;38.928;-77.052;2023-02-13T04:33:40;99854.59;;;6.86;100.00
6524;BME280;3295;38.928;-77.052;2023-02-13T04:36:08;99840.09;;;6.84;100.00
6524;BME280;3295;38.928;-77.052;2023-02-13T04:38:36;99837.94;;;6.91;100.00
6524;BME280;3295;38.928;-77.052;2023-02-13T04:41:06;99830.63;;;6.97;100.00
6524;BME280;3295;38.928;-77.052;2023-02-13T04:43:34;99841.91;;;6.86;100.00
6524;BME280;3295;38.928;-77.052;2023-02-13T04:46:02;99829.03;;;6.82;100.00
6524;BME280;3295;38.928;-77.052;2023-02-13T04:48:30;99829.75;;;6.79;100.00
6524;BME280;3295;38.928;-77.052;2023-02-13T04:50:58;99829.25;;;6.86;100.00
6524;BME280;3295;38.928;-77.052;2023-02-13T04:53:26;99814.34;;;6.92;100.00
6524;BME280;3295;38.928;-77.052;2023-02-13T04:55:54;99815.22;;;6.93;100.00
6524;BME280;3295;38.928;-77.052;2023-02-13T04:58:23;99825.84;;;6.86;100.00
6524;BME280;3295;38.928;-77.052;2023-02-13T05:00:51;99824.47;;;6.92;100.00
6524;BME280;3295;38.928;-77.052;2023-02-13T05:03:19;99826.22;;;6.93;100.00
6524;BME280;3295;38.928;-77.052;2023-02-13T05:05:47;99829.84;;;6.81;100.00
6524;BME280;3295;38.928;-77.052;2023-02-13T05:08:16;99835.03;;;6.84;100.00
6524;BME280;3295;38.928;-77.052;2023-02-13T05:10:44;99835.63;;;6.78;100.00
6524;BME280;3295;38.928;-77.052;2023-02-13T05:13:12;99848.78;;;6.71;100.00
6524;BME280;3295;38.928;-77.052;2023-02-13T05:15:43;99838.78;;;6.74;100.00
6524;BME280;3295;38.928;-77.052;2023-02-13T05:18:11;99846.03;;;6.84;100.00
6524;BME280;3295;38.928;-77.052;2023-02-13T05:20:40;99838.50;;;6.86;100.00
6524;BME280;3295;38.928;-77.052;2023-02-13T05:23:13;99834.63;;;6.92;100.00
6524;BME280;3295;38.928;-77.052;2023-02-13T05:25:49;99828.59;;;6.90;100.00
6524;BME280;3295;38.928;-77.052;2023-02-13T05:28:17;99821.00;;;6.90;100.00
6524;BME280;3295;38.928;-77.052;2023-02-13T05:31:04;99808.97;;;6.86;100.00
6524;BME280;3295;38.928;-77.052;2023-02-13T05:33:31;99810.22;;;6.94;100.00
6524;BME280;3295;38.928;-77.052;2023-02-13T05:35:59;99805.94;;;6.93;100.00
6524;BME280;3295;38.928;-77.052;2023-02-13T05:38:27;99790.75;;;6.93;100.00
6524;BME280;3295;38.928;-77.052;2023-02-13T05:40:57;99798.63;;;6.99;100.00
6524;BME280;3295;38.928;-77.052;2023-02-13T05:43:26;99796.53;;;6.91;100.00
6524;BME280;3295;38.928;-77.052;2023-02-13T05:46:01;99800.28;;;6.99;100.00
6524;BME280;3295;38.928;-77.052;2023-02-13T05:48:31;99796.59;;;7.10;100.00
6524;BME280;3295;38.928;-77.052;2023-02-13T05:50:59;99793.03;;;7.06;100.00
6524;BME280;3295;38.928;-77.052;2023-02-13T05:53:27;99802.38;;;7.07;100.00
6524;BME280;3295;38.928;-77.052;2023-02-13T05:55:56;99801.53;;;6.89;100.00
6524;BME280;3295;38.928;-77.052;2023-02-13T05:58:24;99792.31;;;6.91;100.00
6524;BME280;3295;38.928;-77.052;2023-02-13T06:00:54;99797.56;;;6.94;100.00
6524;BME280;3295;38.928;-77.052;2023-02-13T06:03:23;99799.00;;;6.89;100.00
6524;BME280;3295;38.928;-77.052;2023-02-13T06:05:53;99804.47;;;6.98;100.00
6524;BME280;3295;38.928;-77.052;2023-02-13T06:08:21;99797.56;;;6.94;100.00
6524;BME280;3295;38.928;-77.052;2023-02-13T06:10:50;99795.09;;;6.96;100.00
6524;BME280;3295;38.928;-77.052;2023-02-13T06:13:18;99795.97;;;6.96;100.00
6524;BME280;3295;38.928;-77.052;2023-02-13T06:15:46;99792.31;;;6.91;100.00
6524;BME280;3295;38.928;-77.052;2023-02-13T06:18:15;99786.38;;;6.91;100.00
6524;BME280;3295;38.928;-77.052;2023-02-13T06:20:43;99788.69;;;6.86;100.00
6524;BME280;3295;38.928;-77.052;2023-02-13T06:23:12;99795.34;;;6.84;100.00
6524;BME280;3295;38.928;-77.052;2023-02-13T06:25:40;99793.44;;;6.96;100.00
6524;BME280;3295;38.928;-77.052;2023-02-13T06:28:08;99795.81;;;6.93;100.00
6524;BME280;3295;38.928;-77.052;2023-02-13T06:30:36;99793.66;;;6.83;100.00
6524;BME280;3295;38.928;-77.052;2023-02-13T06:33:04;99786.53;;;6.94;100.00
6524;BME280;3295;38.928;-77.052;2023-02-13T06:35:32;99790.13;;;6.99;100.00
6524;BME280;3295;38.928;-77.052;2023-02-13T06:38:00;99799.78;;;6.88;100.00
6524;BME280;3295;38.928;-77.052;2023-02-13T06:40:29;99802.31;;;6.88;100.00
6524;BME280;3295;38.928;-77.052;2023-02-13T06:42:57;99806.25;;;6.82;100.00
6524;BME280;3295;38.928;-77.052;2023-02-13T06:45:25;99806.44;;;6.86;100.00
6524;BME280;3295;38.928;-77.052;2023-02-13T06:47:53;99803.63;;;6.80;100.00
6524;BME280;3295;38.928;-77.052;2023-02-13T06:50:21;99813.91;;;6.65;100.00
6524;BME280;3295;38.928;-77.052;2023-02-13T06:52:50;99814.41;;;6.76;100.00
6524;BME280;3295;38.928;-77.052;2023-02-13T06:55:18;99796.81;;;6.79;100.00
6524;BME280;3295;38.928;-77.052;2023-02-13T06:57:48;99804.06;;;6.89;100.00
6524;BME280;3295;38.928;-77.052;2023-02-13T07:00:17;99804.34;;;6.95;100.00
6524;BME280;3295;38.928;-77.052;2023-02-13T07:02:45;99800.72;;;6.90;100.00
6524;BME280;3295;38.928;-77.052;2023-02-13T07:05:14;99803.19;;;6.89;100.00
6524;BME280;3295;38.928;-77.052;2023-02-13T07:07:42;99798.09;;;6.71;100.00
6524;BME280;3295;38.928;-77.052;2023-02-13T07:10:11;99795.22;;;6.81;100.00
6524;BME280;3295;38.928;-77.052;2023-02-13T07:12:39;99788.84;;;6.89;100.00
6524;BME280;3295;38.928;-77.052;2023-02-13T07:15:09;99800.88;;;6.93;100.00
6524;BME280;3295;38.928;-77.052;2023-02-13T07:17:38;99796.69;;;6.94;100.00
6524;BME280;3295;38.928;-77.052;2023-02-13T07:20:07;99793.19;;;6.92;100.00
6524;BME280;3295;38.928;-77.052;2023-02-13T07:22:35;99797.56;;;6.94;100.00
6524;BME280;3295;38.928;-77.052;2023-02-13T07:25:04;99789.00;;;6.92;100.00
6524;BME280;3295;38.928;-77.052;2023-02-13T07:27:31;99792.19;;;6.88;100.00
6524;BME280;3295;38.928;-77.052;2023-02-13T07:29:59;99792.31;;;6.91;100.00
6524;BME280;3295;38.928;-77.052;2023-02-13T07:32:29;99781.75;;;7.00;100.00
6524;BME280;3295;38.928;-77.052;2023-02-13T07:34:57;99791.00;;;6.99;100.00
6524;BME280;3295;38.928;-77.052;2023-02-13T07:37:26;99785.94;;;6.99;100.00
6524;BME280;3295;38.928;-77.052;2023-02-13T07:39:54;99783.00;;;6.90;100.00
6524;BME280;3295;38.928;-77.052;2023-02-13T07:42:22;99789.72;;;6.90;100.00
6524;BME280;3295;38.928;-77.052;2023-02-13T07:44:50;99783.94;;;6.92;100.00
6524;BME280;3295;38.928;-77.052;2023-02-13T07:47:18;99783.63;;;7.04;100.00
6524;BME280;3295;38.928;-77.052;2023-02-13T07:49:47;99791.47;;;7.08;100.00
6524;BME280;3295;38.928;-77.052;2023-02-13T07:52:15;99793.66;;;6.83;100.00
6524;BME280;3295;38.928;-77.052;2023-02-13T07:54:43;99788.84;;;6.89;100.00
6524;BME280;3295;38.928;-77.052;2023-02-13T07:57:13;99795.72;;;6.74;100.00
6524;BME280;3295;38.928;-77.052;2023-02-13T07:59:41;99790.44;;;6.87;100.00
6524;BME280;3295;38.928;-77.052;2023-02-13T08:02:11;99798.84;;;6.86;100.00
6524;BME280;3295;38.928;-77.052;2023-02-13T08:04:39;99803.19;;;6.71;100.00
6524;BME280;3295;38.928;-77.052;2023-02-13T08:07:12;99802.69;;;6.78;100.00
6524;BME280;3295;38.928;-77.052;2023-02-13T08:09:40;99808.38;;;6.56;100.00
6524;BME280;3295;38.928;-77.052;2023-02-13T08:12:27;99794.78;;;6.72;100.00
6524;BME280;3295;38.928;-77.052;2023-02-13T08:14:55;99790.00;;;6.78;100.00
6524;BME280;3295;38.928;-77.052;2023-02-13T08:17:23;99799.72;;;6.87;100.00
6524;BME280;3295;38.928;-77.052;2023-02-13T08:19:51;99795.34;;;6.84;100.00
6524;BME280;3295;38.928;-77.052;2023-02-13T08:22:21;99785.38;;;6.87;100.00
6524;BME280;3295;38.928;-77.052;2023-02-13T08:24:49;99788.06;;;6.90;100.00
6524;BME280;3295;38.928;-77.052;2023-02-13T08:27:17;99784.19;;;6.98;100.00
6524;BME280;3295;38.928;-77.052;2023-02-13T08:29:44;99794.50;;;7.01;100.00
6524;BME280;3295;38.928;-77.052;2023-02-13T08:32:12;99792.59;;;6.97;100.00
6524;BME280;3295;38.928;-77.052;2023-02-13T08:34:41;99801.06;;;7.16;100.00
6524;BME280;3295;38.928;-77.052;2023-02-13T08:37:09;99802.47;;;7.09;100.00
6524;BME280;3295;38.928;-77.052;2023-02-13T08:39:38;99800.41;;;7.20;100.00
6524;BME280;3295;38.928;-77.052;2023-02-13T08:42:07;99813.59;;;7.12;100.00
6524;BME280;3295;38.928;-77.052;2023-02-13T08:44:35;99813.03;;;7.18;100.00
6524;BME280;3295;38.928;-77.052;2023-02-13T08:47:06;99808.81;;;7.19;100.00
6524;BME280;3295;38.928;-77.052;2023-02-13T08:49:34;99819.19;;;7.05;100.00
6524;BME280;3295;38.928;-77.052;2023-02-13T08:52:02;99808.41;;;7.09;100.00
6524;BME280;3295;38.928;-77.052;2023-02-13T08:54:32;99808.41;;;7.09;100.00
6524;BME280;3295;38.928;-77.052;2023-02-13T08:57:01;99815.06;;;7.07;100.00
6524;BME280;3295;38.928;-77.052;2023-02-13T08:59:29;99819.75;;;7.18;100.00
6524;BME280;3295;38.928;-77.052;2023-02-13T09:01:57;99826.50;;;7.17;100.00
6524;BME280;3295;38.928;-77.052;2023-02-13T09:04:25;99824.03;;;7.19;100.00
6524;BME280;3295;38.928;-77.052;2023-02-13T09:06:53;99818.25;;;7.03;100.00
6524;BME280;3295;38.928;-77.052;2023-02-13T09:09:21;99823.38;;;7.05;100.00
6524;BME280;3295;38.928;-77.052;2023-02-13T09:11:49;99834.97;;;6.82;100.00
6524;BME280;3295;38.928;-77.052;2023-02-13T09:14:20;99832.72;;;6.88;100.00
6524;BME280;3295;38.928;-77.052;2023-02-13T09:16:48;99834.78;;;6.95;100.00
6524;BME280;3295;38.928;-77.052;2023-02-13T09:19:16;99844.47;;;7.04;100.00
6524;BME280;3295;38.928;-77.052;2023-02-13T09:21:43;99845.41;;;7.06;100.00
6524;BME280;3295;38.928;-77.052;2023-02-13T09:24:11;99860.13;;;6.95;98.02
6524;BME280;3295;38.928;-77.052;2023-02-13T09:26:39;99856.63;;;6.93;100.00
6524;BME280;3295;38.928;-77.052;2023-02-13T09:29:07;99856.47;;;6.90;95.53
6524;BME280;3295;38.928;-77.052;2023-02-13T09:31:36;99852.84;;;6.85;94.13
6524;BME280;3295;38.928;-77.052;2023-02-13T09:34:04;99844.34;;;6.83;95.16
6524;BME280;3295;38.928;-77.052;2023-02-13T09:36:32;99849.53;;;6.86;93.89
6524;BME280;3295;38.928;-77.052;2023-02-13T09:39:01;99857.63;;;6.79;94.50
6524;BME280;3295;38.928;-77.052;2023-02-13T09:41:31;99853.63;;;6.84;94.04
6524;BME280;3295;38.928;-77.052;2023-02-13T09:44:03;99847.78;;;6.85;93.80
6524;BME280;3295;38.928;-77.052;2023-02-13T09:46:36;99855.97;;;6.80;96.93
6524;BME280;3295;38.928;-77.052;2023-02-13T09:49:08;99853.38;;;6.78;95.71
6524;BME280;3295;38.928;-77.052;2023-02-13T09:51:40;99860.69;;;6.90;93.10
6524;BME280;3295;38.928;-77.052;2023-02-13T09:54:13;99866.09;;;6.97;93.72
6524;BME280;3295;38.928;-77.052;2023-02-13T09:56:47;99870.75;;;6.88;90.18
6524;BME280;3295;38.928;-77.052;2023-02-13T09:59:33;99876.44;;;6.84;91.31
6524;BME280;3295;38.928;-77.052;2023-02-13T10:02:18;99867.19;;;6.85;92.08
6524;BME280;3295;38.928;-77.052;2023-02-13T10:04:51;99870.38;;;6.81;94.08
6524;BME280;3295;38.928;-77.052;2023-02-13T10:07:28;99868.50;;;6.76;94.55
6524;BME280;3295;38.928;-77.052;2023-02-13T10:10:02;99872.53;;;6.73;92.03
6524;BME280;3295;38.928;-77.052;2023-02-13T10:12:47;99874.44;;;6.77;92.76
6524;BME280;3295;38.928;-77.052;2023-02-13T10:15:23;99881.19;;;6.60;91.09
6524;BME280;3295;38.928;-77.052;2023-02-13T10:18:00;99892.78;;;6.73;93.03
6524;BME280;3295;38.928;-77.052;2023-02-13T10:20:35;99898.03;;;6.76;90.48
6524;BME280;3295;38.928;-77.052;2023-02-13T10:23:15;99901.50;;;6.78;89.10
6524;BME280;3295;38.928;-77.052;2023-02-13T10:25:49;99902.78;;;6.70;89.48
6524;BME280;3295;38.928;-77.052;2023-02-13T10:28:29;99904.50;;;6.71;88.12
6524;BME280;3295;38.928;-77.052;2023-02-13T10:31:03;99900.13;;;6.67;87.19
6524;BME280;3295;38.928;-77.052;2023-02-13T10:33:35;99900.03;;;6.65;85.93
6524;BME280;3295;38.928;-77.052;2023-02-13T10:36:14;99902.97;;;6.57;83.28
6524;BME280;3295;38.928;-77.052;2023-02-13T10:38:44;99911.31;;;6.72;82.94
6524;BME280;3295;38.928;-77.052;2023-02-13T10:41:21;99913.72;;;6.69;82.72
6524;BME280;3295;38.928;-77.052;2023-02-13T10:44:03;99909.91;;;6.77;81.66
6524;BME280;3295;38.928;-77.052;2023-02-13T10:46:37;99912.44;;;6.77;80.94
6524;BME280;3295;38.928;-77.052;2023-02-13T10:49:29;99916.00;;;6.81;81.34
6524;BME280;3295;38.928;-77.052;2023-02-13T10:52:09;99916.00;;;6.81;81.54
6524;BME280;3295;38.928;-77.052;2023-02-13T10:55:03;99918.72;;;6.85;81.80
6524;BME280;3295;38.928;-77.052;2023-02-13T10:57:43;99923.19;;;6.73;81.31
6524;BME280;3295;38.928;-77.052;2023-02-13T11:00:18;99928.94;;;6.69;78.93
6524;BME280;3295;38.928;-77.052;2023-02-13T11:02:49;99927.50;;;6.58;79.43
6524;BME280;3295;38.928;-77.052;2023-02-13T11:05:21;99931.06;;;6.61;81.50
6524;BME280;3295;38.928;-77.052;2023-02-13T11:07:50;99927.66;;;6.61;80.72
6524;BME280;3295;38.928;-77.052;2023-02-13T11:10:19;99930.19;;;6.61;82.42
6524;BME280;3295;38.928;-77.052;2023-02-13T11:12:48;99917.69;;;6.64;79.27
6524;BME280;3295;38.928;-77.052;2023-02-13T11:15:23;99915.53;;;6.71;76.52
6524;BME280;3295;38.928;-77.052;2023-02-13T11:17:53;99932.63;;;6.75;74.45
6524;BME280;3295;38.928;-77.052;2023-02-13T11:20:31;99930.34;;;6.80;72.92
6524;BME280;3295;38.928;-77.052;2023-02-13T11:23:32;99918.94;;;6.72;70.89
6524;BME280;3295;38.928;-77.052;2023-02-13T11:26:02;99923.19;;;6.73;71.37
6524;BME280;3295;38.928;-77.052;2023-02-13T11:28:36;99924.06;;;6.73;70.46
6524;BME280;3295;38.928;-77.052;2023-02-13T11:31:12;99924.94;;;6.74;69.67
6524;BME280;3295;38.928;-77.052;2023-02-13T11:33:41;99928.28;;;6.73;68.79
6524;BME280;3295;38.928;-77.052;2023-02-13T11:36:14;99928.88;;;6.85;67.14
6524;BME280;3295;38.928;-77.052;2023-02-13T11:38:42;99930.78;;;6.89;64.67
6524;BME280;3295;38.928;-77.052;2023-02-13T11:41:12;99930.22;;;6.95;63.29
6524;BME280;3295;38.928;-77.052;2023-02-13T11:43:46;99936.16;;;6.95;62.59
6524;BME280;3295;38.928;-77.052;2023-02-13T11:46:18;99936.81;;;6.75;60.95
6524;BME280;3295;38.928;-77.052;2023-02-13T11:48:57;99932.69;;;6.77;59.67
6524;BME280;3295;38.928;-77.052;2023-02-13T11:51:38;99936.75;;;6.73;59.61
6524;BME280;3295;38.928;-77.052;2023-02-13T11:54:22;99931.13;;;6.79;62.27
6524;BME280;3295;38.928;-77.052;2023-02-13T11:56:53;99932.94;;;6.82;64.07
6524;BME280;3295;38.928;-77.052;2023-02-13T11:59:22;99936.81;;;6.75;65.78
6524;BME280;3295;38.928;-77.052;2023-02-13T12:02:12;99946.34;;;6.63;62.52
6524;BME280;3295;38.928;-77.052;2023-02-13T12:04:41;99940.25;;;6.59;62.59
6524;BME280;3295;38.928;-77.052;2023-02-13T12:07:17;99942.78;;;6.59;61.07
6524;BME280;3295;38.928;-77.052;2023-02-13T12:09:49;99945.72;;;6.51;60.60
6524;BME280;3295;38.928;-77.052;2023-02-13T12:12:25;99953.09;;;6.46;59.57
6524;BME280;3295;38.928;-77.052;2023-02-13T12:15:15;99960.31;;;6.55;59.01
6524;BME280;3295;38.928;-77.052;2023-02-13T12:17:45;99968.91;;;6.58;57.71
6524;BME280;3295;38.928;-77.052;2023-02-13T12:20:15;99973.00;;;6.72;56.39
6524;BME280;3295;38.928;-77.052;2023-02-13T12:22:56;99971.44;;;6.74;55.79
6524;BME280;3295;38.928;-77.052;2023-02-13T12:25:46;99987.94;;;6.84;55.11
6524;BME280;3295;38.928;-77.052;2023-02-13T12:28:15;99988.13;;;6.87;54.92
6524;BME280;3295;38.928;-77.052;2023-02-13T12:31:03;99987.78;;;6.97;54.75
6524;BME280;3295;38.928;-77.052;2023-02-13T12:33:53;99991.25;;;6.99;53.71
6524;BME280;3295;38.928;-77.052;2023-02-13T12:36:28;99988.41;;;7.09;53.85
6524;BME280;3295;38.928;-77.052;2023-02-13T12:39:15;99987.75;;;7.13;53.73
6524;BME280;3295;38.928;-77.052;2023-02-13T12:41:51;99992.81;;;7.13;52.93
6524;BME280;3295;38.928;-77.052;2023-02-13T12:44:39;99987.47;;;7.07;52.48
6524;BME280;3295;38.928;-77.052;2023-02-13T12:47:17;99989.31;;;7.11;51.32
6524;BME280;3295;38.928;-77.052;2023-02-13T12:50:04;99996.41;;;7.01;51.28
6524;BME280;3295;38.928;-77.052;2023-02-13T12:52:41;100006.25;;;7.29;51.43
6524;BME280;3295;38.928;-77.052;2023-02-13T12:55:27;100012.41;;;7.34;51.48
6524;BME280;3295;38.928;-77.052;2023-02-13T12:58:11;100020.09;;;7.53;49.89
6524;BME280;3295;38.928;-77.052;2023-02-13T13:00:50;100025.03;;;7.68;49.92
6524;BME280;3295;38.928;-77.052;2023-02-13T13:03:34;100031.00;;;7.68;49.87
6524;BME280;3295;38.928;-77.052;2023-02-13T13:06:41;100017.44;;;7.85;49.39
6524;BME280;3295;38.928;-77.052;2023-02-13T13:09:34;100031.00;;;7.86;47.40
6524;BME280;3295;38.928;-77.052;2023-02-13T13:12:21;100035.06;;;7.82;47.98
6524;BME280;3295;38.928;-77.052;2023-02-13T13:14:54;100047.03;;;8.03;48.50
6524;BME280;3295;38.928;-77.052;2023-02-13T13:17:35;100045.78;;;7.95;46.41
6524;BME280;3295;38.928;-77.052;2023-02-13T13:20:35;100047.38;;;8.10;47.64
6524;BME280;3295;38.928;-77.052;2023-02-13T13:23:10;100044.31;;;8.35;47.56
6524;BME280;3295;38.928;-77.052;2023-02-13T13:25:46;100051.69;;;8.48;47.46
6524;BME280;3295;38.928;-77.052;2023-02-13T13:28:20;100050.22;;;8.53;47.27
6524;BME280;3295;38.928;-77.052;2023-02-13T13:30:49;100050.69;;;8.64;47.57
6524;BME280;3295;38.928;-77.052;2023-02-13T13:33:20;100049.16;;;8.68;45.19